Terminal Aerodrome Forecast
Issued by NWS

Home | Current Version | Previous Version | Text Only | Print | Product List | Glossary On
Versions: 1 2 3 4 5 6 7 8 9 10 11 12 13
000
FTUS42 KMLB 222323
TAFISM
TAF
KISM 222323Z 2300/2324 10012KT P6SM SCT050 BKN250
     FM230200 07009KT P6SM SCT060 BKN250
     FM230400 04005KT P6SM FEW060 SCT250
     FM231400 06010KT P6SM SCT040
     FM231800 07013KT P6SM SCT040 SCT060
      AMD NOT SKED 2303/2312=

USA.gov is the U.S. government's official web portal to all federal, state and local government web resources and services.